Alkol, WV

11:09 PM EDT on March 28, 2015 (GMT -0400)
Trace Creek | | Change Station
CLOSE
Current Station
Personal Weather Station
Location: Hamlin, WV
Elevation: 713 ft
Nearby Weather Stations

Elev 713 ft 38.26 °N, 82.08 °W | Updated 9 seconds ago

Clear
Clear
24.2 °F
Feels Like 24 °F
N
0.0
Wind Variable Wind from North
Gusts 0.0 mph

Today
High -- | Low -- °F
--% Chance of Precip.
Yesterday
High -- | Low -- °F
Precip. -- in
7:19 AM 7:47 PM
Waxing Gibbous, 67% visible
Pressure 30.35 in
Visibility 10.0 miles
Clouds Clear
Windchill 24 °F
Dew Point 17 °F
Humidity 75%
Rainfall 0.00 in
Snow Depth Not available.
UV 0 out of 12
Pollen 7.10 out of 12
Air Quality Not available.
Flu Activity Not available.
METAR KCRW 290254Z 32004KT 10SM CLR M02/M13 A3032 RMK AO2 SLP277 T10221128 51021

More Conditions Fewer Conditions

Pressure 30.35 in
Visibility 10.0 miles
Clouds Clear
Windchill 24 °F
Dew Point 17 °F
Humidity 75%
Rainfall 0.00 in
Snow Depth Not available.
UV 0 out of 12
Pollen 7.10 out of 12
Air Quality Not available.
Flu Activity Not available.
METAR KCRW 290254Z 32004KT 10SM CLR M02/M13 A3032 RMK AO2 SLP277 T10221128 51021

More Conditions Fewer Conditions

10-Day Weather Forecast

Almanac

Astronomy

Mar. 28, 2015 Rise Set
Actual Time
Civil Twilight
Nautical Twilight
Astronomical Twilight
Moon
Length of Visible Light
Length of Day
Tomorrow will be .
, % of the Moon is Illuminated

Today's Extremes

State Highs State Lows

Community

WunderPhotos

Upload Photos

1,809,174 photos uploaded!

WunderBlogs® & News

Nearby

Air Quality

  Air Quality AQ Index Pollutant
Not available.

Snow Depth

Station Depth Elevation

Earthquake Activity

City Distance Mag. Time & Date
Minimum magnitude displayed is 2.5.

Coastal Water Temperatures

Place Temperature

Stations

Nearby Weather Stations

Station Location Temp. Windchill Dew Point Humidity Wind Precip. Elev Updated Type